South River, Missouri
Current Conditions -  °F | °C
As of 1:15 PM on Monday 22 Dec 2014 (Local Time) from KHAE Reporting Station
Haze Haze  
Wind Chill: 39°   Ceiling: 400
Heat Index: 43°   Visibility: 4mi
Dew Point: 41°   Wind: 6mph
Humidity: 93%   Direction: 150°SSE
Pressure: 29.56"   Gusts: NA
Location:  39.7865°N, 91.559°W
Report Text: KHAE 221915Z AUTO 15005KT 4SM BR OVC004 06/05 A2956 RMK AO2
Loading
Personal Weather Stations






























Interactive Weather Map New forecast layout! Learn more

10-Day Weather Forecast

Advertisements
Track Severe Weather on mobile